sensor_id;sensor_type;location;lat;lon;timestamp;pressure;altitude;pressure_sealevel;temperature;humidity
80414;BME280;69758;52.580;13.068;2023-07-02T00:00:20;100109.84;;;24.42;38.72
80414;BME280;69758;52.580;13.068;2023-07-02T00:02:45;100110.29;;;24.19;38.71
80414;BME280;69758;52.580;13.068;2023-07-02T00:05:10;100116.18;;;24.21;38.76
80414;BME280;69758;52.580;13.068;2023-07-02T00:07:35;100114.66;;;24.57;38.75
80414;BME280;69758;52.580;13.068;2023-07-02T00:10:00;100114.79;;;24.30;39.18
80414;BME280;69758;52.580;13.068;2023-07-02T00:12:25;100110.95;;;23.98;39.31
80414;BME280;69758;52.580;13.068;2023-07-02T00:14:50;100111.90;;;24.21;39.26
80414;BME280;69758;52.580;13.068;2023-07-02T00:17:15;100110.08;;;24.42;39.00
80414;BME280;69758;52.580;13.068;2023-07-02T00:19:40;100113.04;;;24.34;39.10
80414;BME280;69758;52.580;13.068;2023-07-02T00:22:05;100119.52;;;24.40;38.98
80414;BME280;69758;52.580;13.068;2023-07-02T00:24:30;100123.46;;;24.31;39.00
80414;BME280;69758;52.580;13.068;2023-07-02T00:26:55;100120.97;;;23.93;39.21
80414;BME280;69758;52.580;13.068;2023-07-02T00:29:20;100123.90;;;24.22;39.19
80414;BME280;69758;52.580;13.068;2023-07-02T00:31:46;100124.43;;;24.32;39.11
80414;BME280;69758;52.580;13.068;2023-07-02T00:34:10;100127.65;;;24.29;38.87
80414;BME280;69758;52.580;13.068;2023-07-02T00:36:35;100128.71;;;24.39;38.81
80414;BME280;69758;52.580;13.068;2023-07-02T00:39:01;100135.33;;;24.44;38.73
80414;BME280;69758;52.580;13.068;2023-07-02T00:41:26;100135.41;;;24.23;38.73
80414;BME280;69758;52.580;13.068;2023-07-02T00:43:51;100135.17;;;24.25;38.76
80414;BME280;69758;52.580;13.068;2023-07-02T00:46:17;100139.05;;;24.54;38.65
80414;BME280;69758;52.580;13.068;2023-07-02T00:48:41;100141.93;;;24.13;38.87
80414;BME280;69758;52.580;13.068;2023-07-02T00:51:06;100141.43;;;24.28;38.89
80414;BME280;69758;52.580;13.068;2023-07-02T00:53:31;100142.04;;;24.10;39.42
80414;BME280;69758;52.580;13.068;2023-07-02T00:55:56;100142.05;;;23.96;39.30
80414;BME280;69758;52.580;13.068;2023-07-02T00:58:21;100142.24;;;24.07;39.08
80414;BME280;69758;52.580;13.068;2023-07-02T01:00:47;100142.45;;;24.11;38.95
80414;BME280;69758;52.580;13.068;2023-07-02T01:03:11;100136.15;;;24.00;39.00
80414;BME280;69758;52.580;13.068;2023-07-02T01:05:36;100135.66;;;23.90;39.15
80414;BME280;69758;52.580;13.068;2023-07-02T01:08:02;100145.71;;;23.84;39.28
80414;BME280;69758;52.580;13.068;2023-07-02T01:10:26;100144.42;;;23.95;39.08
80414;BME280;69758;52.580;13.068;2023-07-02T01:12:52;100141.56;;;23.85;39.31
80414;BME280;69758;52.580;13.068;2023-07-02T01:15:17;100145.03;;;24.01;39.13
80414;BME280;69758;52.580;13.068;2023-07-02T01:17:42;100147.05;;;23.97;39.13
80414;BME280;69758;52.580;13.068;2023-07-02T01:20:08;100146.27;;;23.70;39.15
80414;BME280;69758;52.580;13.068;2023-07-02T01:22:32;100142.41;;;23.87;39.21
80414;BME280;69758;52.580;13.068;2023-07-02T01:24:57;100144.41;;;23.89;39.18
80414;BME280;69758;52.580;13.068;2023-07-02T01:27:23;100144.24;;;23.84;39.09
80414;BME280;69758;52.580;13.068;2023-07-02T01:29:50;100145.27;;;23.77;39.08
80414;BME280;69758;52.580;13.068;2023-07-02T01:32:13;100143.09;;;23.79;39.35
80414;BME280;69758;52.580;13.068;2023-07-02T01:34:37;100141.39;;;23.66;39.21
80414;BME280;69758;52.580;13.068;2023-07-02T01:37:03;100146.38;;;23.67;39.00
80414;BME280;69758;52.580;13.068;2023-07-02T01:39:27;100148.72;;;23.81;38.86
80414;BME280;69758;52.580;13.068;2023-07-02T01:41:54;100151.08;;;23.82;38.82
80414;BME280;69758;52.580;13.068;2023-07-02T01:44:18;100154.75;;;23.79;38.76
80414;BME280;69758;52.580;13.068;2023-07-02T01:46:43;100152.11;;;23.91;38.79
80414;BME280;69758;52.580;13.068;2023-07-02T01:49:08;100152.03;;;23.76;38.66
80414;BME280;69758;52.580;13.068;2023-07-02T01:51:33;100155.28;;;23.54;38.52
80414;BME280;69758;52.580;13.068;2023-07-02T01:53:58;100156.37;;;23.67;38.47
80414;BME280;69758;52.580;13.068;2023-07-02T01:56:24;100158.69;;;23.44;38.67
80414;BME280;69758;52.580;13.068;2023-07-02T01:58:48;100161.52;;;23.86;38.40
80414;BME280;69758;52.580;13.068;2023-07-02T02:01:13;100158.27;;;23.44;38.63
80414;BME280;69758;52.580;13.068;2023-07-02T02:03:38;100157.90;;;23.54;38.50
80414;BME280;69758;52.580;13.068;2023-07-02T02:06:04;100159.92;;;23.53;38.36
80414;BME280;69758;52.580;13.068;2023-07-02T02:08:29;100161.00;;;23.57;38.33
80414;BME280;69758;52.580;13.068;2023-07-02T02:10:55;100162.89;;;23.63;38.26
80414;BME280;69758;52.580;13.068;2023-07-02T02:13:19;100160.70;;;23.67;38.16
80414;BME280;69758;52.580;13.068;2023-07-02T02:15:44;100161.23;;;23.83;38.18
80414;BME280;69758;52.580;13.068;2023-07-02T02:18:10;100161.93;;;24.03;38.19
80414;BME280;69758;52.580;13.068;2023-07-02T02:20:35;100163.90;;;23.62;38.12
80414;BME280;69758;52.580;13.068;2023-07-02T02:23:00;100160.73;;;23.60;37.97
80414;BME280;69758;52.580;13.068;2023-07-02T02:25:25;100165.79;;;23.80;37.96
80414;BME280;69758;52.580;13.068;2023-07-02T02:27:50;100166.14;;;23.59;38.03
80414;BME280;69758;52.580;13.068;2023-07-02T02:30:15;100161.74;;;23.70;38.09
80414;BME280;69758;52.580;13.068;2023-07-02T02:32:40;100166.61;;;23.44;38.17
80414;BME280;69758;52.580;13.068;2023-07-02T02:35:06;100166.03;;;23.93;38.09
80414;BME280;69758;52.580;13.068;2023-07-02T02:37:30;100163.24;;;23.42;38.03
80414;BME280;69758;52.580;13.068;2023-07-02T02:39:55;100166.86;;;23.32;38.13
80414;BME280;69758;52.580;13.068;2023-07-02T02:42:20;100168.84;;;23.36;38.02
80414;BME280;69758;52.580;13.068;2023-07-02T02:44:45;100171.63;;;23.64;37.91
80414;BME280;69758;52.580;13.068;2023-07-02T02:47:10;100171.23;;;23.48;37.68
80414;BME280;69758;52.580;13.068;2023-07-02T02:49:37;100173.54;;;23.93;37.63
80414;BME280;69758;52.580;13.068;2023-07-02T02:52:01;100175.34;;;23.41;37.56
80414;BME280;69758;52.580;13.068;2023-07-02T02:54:26;100177.87;;;23.38;37.56
80414;BME280;69758;52.580;13.068;2023-07-02T02:56:51;100177.20;;;23.26;37.66
80414;BME280;69758;52.580;13.068;2023-07-02T02:59:16;100176.88;;;23.15;37.65
80414;BME280;69758;52.580;13.068;2023-07-02T03:01:41;100178.06;;;23.61;37.76
80414;BME280;69758;52.580;13.068;2023-07-02T03:04:11;100178.70;;;23.33;37.78
80414;BME280;69758;52.580;13.068;2023-07-02T03:06:31;100179.35;;;23.14;37.95
80414;BME280;69758;52.580;13.068;2023-07-02T03:08:56;100183.96;;;22.66;38.22
80414;BME280;69758;52.580;13.068;2023-07-02T03:11:22;100187.15;;;22.68;38.26
80414;BME280;69758;52.580;13.068;2023-07-02T03:13:47;100188.07;;;23.01;38.23
80414;BME280;69758;52.580;13.068;2023-07-02T03:16:12;100186.91;;;23.27;38.24
80414;BME280;69758;52.580;13.068;2023-07-02T03:18:37;100187.64;;;23.07;38.14
80414;BME280;69758;52.580;13.068;2023-07-02T03:21:02;100190.17;;;23.12;38.06
80414;BME280;69758;52.580;13.068;2023-07-02T03:23:27;100190.20;;;22.86;38.10
80414;BME280;69758;52.580;13.068;2023-07-02T03:25:52;100191.14;;;23.09;38.10
80414;BME280;69758;52.580;13.068;2023-07-02T03:28:17;100189.57;;;23.11;38.09
80414;BME280;69758;52.580;13.068;2023-07-02T03:30:42;100192.23;;;23.29;38.15
80414;BME280;69758;52.580;13.068;2023-07-02T03:33:08;100193.80;;;23.14;38.36
80414;BME280;69758;52.580;13.068;2023-07-02T03:35:32;100197.78;;;22.95;38.31
80414;BME280;69758;52.580;13.068;2023-07-02T03:37:57;100195.71;;;23.05;38.39
80414;BME280;69758;52.580;13.068;2023-07-02T03:40:24;100197.24;;;23.34;38.24
80414;BME280;69758;52.580;13.068;2023-07-02T03:42:48;100197.33;;;23.22;38.35
80414;BME280;69758;52.580;13.068;2023-07-02T03:45:14;100199.82;;;22.88;38.49
80414;BME280;69758;52.580;13.068;2023-07-02T03:47:38;100204.21;;;22.74;38.46
80414;BME280;69758;52.580;13.068;2023-07-02T03:50:04;100205.55;;;22.82;38.33
80414;BME280;69758;52.580;13.068;2023-07-02T03:52:29;100207.92;;;22.93;38.21
80414;BME280;69758;52.580;13.068;2023-07-02T03:54:54;100213.56;;;22.89;38.24
80414;BME280;69758;52.580;13.068;2023-07-02T03:57:19;100212.29;;;23.15;38.12
80414;BME280;69758;52.580;13.068;2023-07-02T03:59:44;100206.45;;;23.12;38.15
80414;BME280;69758;52.580;13.068;2023-07-02T04:02:09;100205.57;;;22.95;38.25
80414;BME280;69758;52.580;13.068;2023-07-02T04:04:34;100201.25;;;23.06;38.10
80414;BME280;69758;52.580;13.068;2023-07-02T04:06:59;100201.90;;;23.04;38.10
80414;BME280;69758;52.580;13.068;2023-07-02T04:09:24;100203.35;;;23.11;38.03
80414;BME280;69758;52.580;13.068;2023-07-02T04:11:49;100210.81;;;22.79;38.04
80414;BME280;69758;52.580;13.068;2023-07-02T04:14:15;100210.68;;;23.03;37.93
80414;BME280;69758;52.580;13.068;2023-07-02T04:16:40;100212.43;;;23.27;38.14
80414;BME280;69758;52.580;13.068;2023-07-02T04:19:05;100212.10;;;23.11;38.12
80414;BME280;69758;52.580;13.068;2023-07-02T04:21:30;100214.13;;;22.90;38.09
80414;BME280;69758;52.580;13.068;2023-07-02T04:23:55;100220.67;;;22.96;38.04
80414;BME280;69758;52.580;13.068;2023-07-02T04:26:21;100227.47;;;22.86;38.28
80414;BME280;69758;52.580;13.068;2023-07-02T04:28:46;100226.81;;;22.97;38.24
80414;BME280;69758;52.580;13.068;2023-07-02T04:31:11;100226.18;;;23.35;38.39
80414;BME280;69758;52.580;13.068;2023-07-02T04:33:36;100225.28;;;22.72;38.33
80414;BME280;69758;52.580;13.068;2023-07-02T04:36:01;100235.24;;;23.19;38.43
80414;BME280;69758;52.580;13.068;2023-07-02T04:38:26;100236.98;;;22.58;38.52
80414;BME280;69758;52.580;13.068;2023-07-02T04:40:51;100240.55;;;23.04;38.14
80414;BME280;69758;52.580;13.068;2023-07-02T04:43:16;100245.97;;;22.96;38.32
80414;BME280;69758;52.580;13.068;2023-07-02T04:45:42;100250.79;;;23.00;38.28
80414;BME280;69758;52.580;13.068;2023-07-02T04:48:07;100252.21;;;22.75;38.57
80414;BME280;69758;52.580;13.068;2023-07-02T04:50:32;100254.56;;;22.81;38.44
80414;BME280;69758;52.580;13.068;2023-07-02T04:52:57;100258.18;;;22.71;38.58
80414;BME280;69758;52.580;13.068;2023-07-02T04:55:23;100253.70;;;22.64;38.70
80414;BME280;69758;52.580;13.068;2023-07-02T04:57:48;100252.81;;;22.63;38.76
80414;BME280;69758;52.580;13.068;2023-07-02T05:00:14;100252.41;;;22.58;38.84
80414;BME280;69758;52.580;13.068;2023-07-02T05:02:39;100252.19;;;22.72;38.88
80414;BME280;69758;52.580;13.068;2023-07-02T05:05:04;100251.16;;;22.40;38.82
80414;BME280;69758;52.580;13.068;2023-07-02T05:07:28;100252.12;;;22.50;38.65
80414;BME280;69758;52.580;13.068;2023-07-02T05:09:54;100257.09;;;22.96;38.43
80414;BME280;69758;52.580;13.068;2023-07-02T05:12:19;100259.93;;;22.73;38.28
80414;BME280;69758;52.580;13.068;2023-07-02T05:14:44;100262.62;;;22.79;38.45
80414;BME280;69758;52.580;13.068;2023-07-02T05:17:09;100259.78;;;22.60;38.34
80414;BME280;69758;52.580;13.068;2023-07-02T05:19:34;100259.33;;;22.28;38.20
80414;BME280;69758;52.580;13.068;2023-07-02T05:22:00;100262.84;;;22.78;38.22
80414;BME280;69758;52.580;13.068;2023-07-02T05:24:24;100263.13;;;22.52;38.31
80414;BME280;69758;52.580;13.068;2023-07-02T05:26:49;100266.52;;;22.79;38.25
80414;BME280;69758;52.580;13.068;2023-07-02T05:29:14;100265.61;;;22.72;38.12
80414;BME280;69758;52.580;13.068;2023-07-02T05:31:40;100259.82;;;22.77;38.23
80414;BME280;69758;52.580;13.068;2023-07-02T05:34:05;100259.17;;;22.58;38.46
80414;BME280;69758;52.580;13.068;2023-07-02T05:36:30;100259.29;;;22.56;38.33
80414;BME280;69758;52.580;13.068;2023-07-02T05:38:55;100260.23;;;22.49;38.33
80414;BME280;69758;52.580;13.068;2023-07-02T05:41:22;100260.64;;;22.58;38.39
80414;BME280;69758;52.580;13.068;2023-07-02T05:43:45;100266.67;;;22.20;38.37
80414;BME280;69758;52.580;13.068;2023-07-02T05:46:10;100273.95;;;22.57;38.20
80414;BME280;69758;52.580;13.068;2023-07-02T05:48:35;100266.97;;;22.29;38.41
80414;BME280;69758;52.580;13.068;2023-07-02T05:51:00;100261.86;;;22.14;38.31
80414;BME280;69758;52.580;13.068;2023-07-02T05:53:26;100265.62;;;22.23;38.06
80414;BME280;69758;52.580;13.068;2023-07-02T05:55:51;100268.10;;;22.58;37.62
80414;BME280;69758;52.580;13.068;2023-07-02T05:58:16;100256.31;;;22.74;37.43
80414;BME280;69758;52.580;13.068;2023-07-02T06:00:41;100258.65;;;22.35;37.41
80414;BME280;69758;52.580;13.068;2023-07-02T06:03:06;100261.24;;;22.61;37.03
80414;BME280;69758;52.580;13.068;2023-07-02T06:05:31;100270.36;;;22.53;36.87
80414;BME280;69758;52.580;13.068;2023-07-02T06:07:56;100275.07;;;22.65;36.50
80414;BME280;69758;52.580;13.068;2023-07-02T06:10:21;100269.60;;;22.79;36.60
80414;BME280;69758;52.580;13.068;2023-07-02T06:12:46;100270.87;;;22.41;36.74
80414;BME280;69758;52.580;13.068;2023-07-02T06:15:11;100267.43;;;22.50;36.42
80414;BME280;69758;52.580;13.068;2023-07-02T06:17:37;100267.74;;;22.88;36.32
80414;BME280;69758;52.580;13.068;2023-07-02T06:20:02;100254.84;;;22.52;36.26
80414;BME280;69758;52.580;13.068;2023-07-02T06:22:27;100251.29;;;22.69;36.27
80414;BME280;69758;52.580;13.068;2023-07-02T06:24:52;100255.31;;;22.23;36.37
80414;BME280;69758;52.580;13.068;2023-07-02T06:27:17;100263.31;;;22.51;36.45
80414;BME280;69758;52.580;13.068;2023-07-02T06:29:42;100272.63;;;22.65;36.31
80414;BME280;69758;52.580;13.068;2023-07-02T06:32:07;100266.68;;;22.64;36.36
80414;BME280;69758;52.580;13.068;2023-07-02T06:34:32;100260.07;;;22.59;36.45
80414;BME280;69758;52.580;13.068;2023-07-02T06:36:57;100265.58;;;22.60;36.47
80414;BME280;69758;52.580;13.068;2023-07-02T06:39:23;100271.05;;;22.78;36.18
80414;BME280;69758;52.580;13.068;2023-07-02T06:41:47;100271.13;;;22.55;36.37
80414;BME280;69758;52.580;13.068;2023-07-02T06:44:13;100268.85;;;22.28;36.43
80414;BME280;69758;52.580;13.068;2023-07-02T06:46:38;100263.90;;;22.45;36.36
80414;BME280;69758;52.580;13.068;2023-07-02T06:49:03;100269.07;;;22.38;36.12
80414;BME280;69758;52.580;13.068;2023-07-02T06:51:28;100264.69;;;22.72;35.95
80414;BME280;69758;52.580;13.068;2023-07-02T06:53:53;100269.84;;;22.68;35.62
80414;BME280;69758;52.580;13.068;2023-07-02T06:56:18;100267.93;;;22.97;35.23
80414;BME280;69758;52.580;13.068;2023-07-02T06:58:43;100264.40;;;23.23;34.86
80414;BME280;69758;52.580;13.068;2023-07-02T07:01:08;100271.22;;;22.77;34.95
80414;BME280;69758;52.580;13.068;2023-07-02T07:03:34;100278.49;;;22.89;34.81
80414;BME280;69758;52.580;13.068;2023-07-02T07:05:58;100270.88;;;22.97;34.90
80414;BME280;69758;52.580;13.068;2023-07-02T07:08:24;100265.87;;;22.95;35.00
80414;BME280;69758;52.580;13.068;2023-07-02T07:10:50;100266.73;;;22.59;35.28
80414;BME280;69758;52.580;13.068;2023-07-02T07:13:14;100271.86;;;22.58;35.06
80414;BME280;69758;52.580;13.068;2023-07-02T07:15:39;100270.14;;;22.29;35.28
80414;BME280;69758;52.580;13.068;2023-07-02T07:18:04;100278.53;;;22.36;35.54
80414;BME280;69758;52.580;13.068;2023-07-02T07:20:29;100275.62;;;22.37;35.32
80414;BME280;69758;52.580;13.068;2023-07-02T07:22:54;100274.92;;;22.57;35.42
80414;BME280;69758;52.580;13.068;2023-07-02T07:25:19;100273.42;;;22.84;34.72
80414;BME280;69758;52.580;13.068;2023-07-02T07:27:44;100274.75;;;22.76;34.57
80414;BME280;69758;52.580;13.068;2023-07-02T07:30:10;100278.43;;;23.13;34.60
80414;BME280;69758;52.580;13.068;2023-07-02T07:32:34;100279.92;;;22.88;34.09
80414;BME280;69758;52.580;13.068;2023-07-02T07:34:59;100288.44;;;23.18;33.63
80414;BME280;69758;52.580;13.068;2023-07-02T07:37:25;100294.90;;;23.06;33.20
80414;BME280;69758;52.580;13.068;2023-07-02T07:39:49;100298.06;;;23.17;33.13
80414;BME280;69758;52.580;13.068;2023-07-02T07:42:15;100309.55;;;23.36;33.31
80414;BME280;69758;52.580;13.068;2023-07-02T07:44:40;100310.26;;;23.13;33.46
80414;BME280;69758;52.580;13.068;2023-07-02T07:47:06;100313.36;;;23.55;33.33
80414;BME280;69758;52.580;13.068;2023-07-02T07:49:30;100304.53;;;23.19;33.42
80414;BME280;69758;52.580;13.068;2023-07-02T07:51:55;100303.82;;;23.73;33.36
80414;BME280;69758;52.580;13.068;2023-07-02T07:54:20;100307.36;;;23.42;33.34
80414;BME280;69758;52.580;13.068;2023-07-02T07:56:46;100305.47;;;23.43;33.73
80414;BME280;69758;52.580;13.068;2023-07-02T07:59:11;100308.85;;;23.33;33.74
80414;BME280;69758;52.580;13.068;2023-07-02T08:01:36;100309.95;;;22.99;33.69
80414;BME280;69758;52.580;13.068;2023-07-02T08:04:02;100313.53;;;22.90;33.32
80414;BME280;69758;52.580;13.068;2023-07-02T08:06:26;100312.89;;;23.23;33.41
80414;BME280;69758;52.580;13.068;2023-07-02T08:08:51;100316.36;;;23.56;33.44
80414;BME280;69758;52.580;13.068;2023-07-02T08:11:16;100311.87;;;23.30;33.45
80414;BME280;69758;52.580;13.068;2023-07-02T08:13:42;100312.80;;;23.05;33.67
80414;BME280;69758;52.580;13.068;2023-07-02T08:16:06;100317.20;;;23.18;33.59
80414;BME280;69758;52.580;13.068;2023-07-02T08:18:31;100314.08;;;23.26;33.43
80414;BME280;69758;52.580;13.068;2023-07-02T08:20:56;100319.52;;;23.33;33.16
80414;BME280;69758;52.580;13.068;2023-07-02T08:23:21;100319.68;;;23.40;33.37
80414;BME280;69758;52.580;13.068;2023-07-02T08:25:47;100322.32;;;22.80;33.40
80414;BME280;69758;52.580;13.068;2023-07-02T08:28:12;100327.71;;;23.24;33.35
80414;BME280;69758;52.580;13.068;2023-07-02T08:30:37;100326.66;;;22.95;33.42
80414;BME280;69758;52.580;13.068;2023-07-02T08:33:02;100325.96;;;23.06;33.16
80414;BME280;69758;52.580;13.068;2023-07-02T08:35:27;100329.37;;;22.99;33.17
80414;BME280;69758;52.580;13.068;2023-07-02T08:37:52;100328.91;;;22.94;32.81
80414;BME280;69758;52.580;13.068;2023-07-02T08:40:17;100328.60;;;23.27;32.64
80414;BME280;69758;52.580;13.068;2023-07-02T08:42:42;100330.99;;;23.06;32.45
80414;BME280;69758;52.580;13.068;2023-07-02T08:45:08;100330.12;;;23.00;32.61
80414;BME280;69758;52.580;13.068;2023-07-02T08:47:32;100329.38;;;22.74;32.47
80414;BME280;69758;52.580;13.068;2023-07-02T08:49:57;100324.10;;;23.38;32.37
80414;BME280;69758;52.580;13.068;2023-07-02T08:52:22;100327.91;;;23.21;32.07
80414;BME280;69758;52.580;13.068;2023-07-02T08:54:47;100328.84;;;23.37;31.89
80414;BME280;69758;52.580;13.068;2023-07-02T08:57:13;100330.14;;;23.31;32.13
80414;BME280;69758;52.580;13.068;2023-07-02T08:59:38;100331.40;;;23.26;32.20
80414;BME280;69758;52.580;13.068;2023-07-02T09:02:04;100339.26;;;23.22;32.27
80414;BME280;69758;52.580;13.068;2023-07-02T09:04:28;100339.10;;;22.99;32.55
80414;BME280;69758;52.580;13.068;2023-07-02T09:07:04;100346.03;;;23.47;32.28
80414;BME280;69758;52.580;13.068;2023-07-02T09:09:19;100348.62;;;23.17;32.25
80414;BME280;69758;52.580;13.068;2023-07-02T09:11:48;100345.92;;;23.13;31.18
80414;BME280;69758;52.580;13.068;2023-07-02T09:14:09;100345.48;;;23.06;31.63
80414;BME280;69758;52.580;13.068;2023-07-02T09:16:34;100343.19;;;23.18;31.73
80414;BME280;69758;52.580;13.068;2023-07-02T09:19:01;100338.05;;;23.38;31.74
80414;BME280;69758;52.580;13.068;2023-07-02T09:21:26;100336.35;;;23.34;31.61
80414;BME280;69758;52.580;13.068;2023-07-02T09:23:49;100336.02;;;23.38;31.49
80414;BME280;69758;52.580;13.068;2023-07-02T09:26:19;100337.06;;;23.63;31.22
80414;BME280;69758;52.580;13.068;2023-07-02T09:28:39;100339.03;;;22.58;31.29
80414;BME280;69758;52.580;13.068;2023-07-02T09:31:04;100333.41;;;22.96;31.17
80414;BME280;69758;52.580;13.068;2023-07-02T09:33:30;100340.15;;;23.17;29.81
80414;BME280;69758;52.580;13.068;2023-07-02T09:35:55;100346.20;;;23.11;29.94
80414;BME280;69758;52.580;13.068;2023-07-02T09:38:21;100336.83;;;23.24;29.56
80414;BME280;69758;52.580;13.068;2023-07-02T09:40:47;100349.29;;;22.80;29.76
80414;BME280;69758;52.580;13.068;2023-07-02T09:43:11;100335.53;;;22.59;30.14
80414;BME280;69758;52.580;13.068;2023-07-02T09:45:37;100335.11;;;22.68;30.69
80414;BME280;69758;52.580;13.068;2023-07-02T09:48:02;100336.07;;;22.95;30.74
80414;BME280;69758;52.580;13.068;2023-07-02T09:50:27;100333.46;;;22.98;30.94
80414;BME280;69758;52.580;13.068;2023-07-02T09:52:52;100333.25;;;23.50;30.83
80414;BME280;69758;52.580;13.068;2023-07-02T09:55:17;100328.94;;;23.17;30.52
80414;BME280;69758;52.580;13.068;2023-07-02T09:57:43;100327.53;;;23.49;30.68
80414;BME280;69758;52.580;13.068;2023-07-02T10:00:09;100328.64;;;23.30;30.10
80414;BME280;69758;52.580;13.068;2023-07-02T10:02:33;100324.20;;;23.39;29.72
80414;BME280;69758;52.580;13.068;2023-07-02T10:04:58;100314.36;;;22.97;30.65
80414;BME280;69758;52.580;13.068;2023-07-02T10:07:28;100322.10;;;23.07;30.77
80414;BME280;69758;52.580;13.068;2023-07-02T10:09:49;100325.17;;;23.07;31.01
80414;BME280;69758;52.580;13.068;2023-07-02T10:12:16;100332.93;;;23.33;30.25
80414;BME280;69758;52.580;13.068;2023-07-02T10:14:41;100330.75;;;23.74;30.21
80414;BME280;69758;52.580;13.068;2023-07-02T10:17:05;100329.70;;;24.27;29.93
80414;BME280;69758;52.580;13.068;2023-07-02T10:19:30;100333.54;;;23.97;29.00
80414;BME280;69758;52.580;13.068;2023-07-02T10:22:01;100335.67;;;24.17;28.89
80414;BME280;69758;52.580;13.068;2023-07-02T10:24:20;100337.71;;;24.02;29.00
80414;BME280;69758;52.580;13.068;2023-07-02T10:26:52;100344.24;;;24.29;28.28
80414;BME280;69758;52.580;13.068;2023-07-02T10:29:18;100344.73;;;23.58;27.43
80414;BME280;69758;52.580;13.068;2023-07-02T10:31:36;100341.41;;;23.37;28.45
80414;BME280;69758;52.580;13.068;2023-07-02T10:34:01;100339.91;;;23.42;29.24
80414;BME280;69758;52.580;13.068;2023-07-02T10:36:26;100349.73;;;23.51;29.06
80414;BME280;69758;52.580;13.068;2023-07-02T10:38:52;100356.21;;;23.78;28.50
80414;BME280;69758;52.580;13.068;2023-07-02T10:41:24;100360.29;;;23.07;28.45
80414;BME280;69758;52.580;13.068;2023-07-02T10:43:42;100362.08;;;23.32;28.10
80414;BME280;69758;52.580;13.068;2023-07-02T10:46:08;100364.86;;;22.82;28.38
80414;BME280;69758;52.580;13.068;2023-07-02T10:48:34;100358.52;;;23.12;28.74
80414;BME280;69758;52.580;13.068;2023-07-02T10:50:59;100362.00;;;22.77;27.84
80414;BME280;69758;52.580;13.068;2023-07-02T10:53:25;100350.93;;;22.94;29.57
80414;BME280;69758;52.580;13.068;2023-07-02T10:55:54;100349.73;;;23.06;29.70
80414;BME280;69758;52.580;13.068;2023-07-02T10:58:15;100345.25;;;23.39;29.93
80414;BME280;69758;52.580;13.068;2023-07-02T11:00:44;100361.78;;;23.42;29.64
80414;BME280;69758;52.580;13.068;2023-07-02T11:03:16;100353.52;;;23.11;28.91
80414;BME280;69758;52.580;13.068;2023-07-02T11:05:31;100353.29;;;22.84;28.11
80414;BME280;69758;52.580;13.068;2023-07-02T11:10:22;100351.73;;;23.77;27.79
80414;BME280;69758;52.580;13.068;2023-07-02T11:12:47;100349.20;;;23.04;27.88
80414;BME280;69758;52.580;13.068;2023-07-02T11:15:13;100337.79;;;23.37;26.80
80414;BME280;69758;52.580;13.068;2023-07-02T11:17:37;100350.78;;;23.52;27.12
80414;BME280;69758;52.580;13.068;2023-07-02T11:20:02;100347.51;;;23.48;25.92
80414;BME280;69758;52.580;13.068;2023-07-02T11:22:32;100361.03;;;23.19;25.54
80414;BME280;69758;52.580;13.068;2023-07-02T11:24:52;100352.26;;;23.59;25.80
80414;BME280;69758;52.580;13.068;2023-07-02T11:27:21;100353.74;;;23.73;25.12
80414;BME280;69758;52.580;13.068;2023-07-02T11:29:43;100348.24;;;24.24;25.27
80414;BME280;69758;52.580;13.068;2023-07-02T11:32:10;100351.82;;;24.65;25.20
80414;BME280;69758;52.580;13.068;2023-07-02T11:34:34;100359.37;;;24.33;23.88
80414;BME280;69758;52.580;13.068;2023-07-02T11:36:59;100351.74;;;24.38;23.36
80414;BME280;69758;52.580;13.068;2023-07-02T11:39:24;100360.10;;;24.70;23.73
80414;BME280;69758;52.580;13.068;2023-07-02T11:41:49;100364.29;;;24.32;23.24
80414;BME280;69758;52.580;13.068;2023-07-02T11:44:15;100365.87;;;24.51;22.31
80414;BME280;69758;52.580;13.068;2023-07-02T11:46:40;100364.34;;;24.42;23.41
80414;BME280;69758;52.580;13.068;2023-07-02T11:49:05;100362.39;;;24.53;23.22
80414;BME280;69758;52.580;13.068;2023-07-02T11:51:31;100358.97;;;24.67;22.51
80414;BME280;69758;52.580;13.068;2023-07-02T11:53:56;100363.30;;;24.67;22.59
80414;BME280;69758;52.580;13.068;2023-07-02T11:56:21;100364.50;;;24.48;22.87
80414;BME280;69758;52.580;13.068;2023-07-02T11:58:46;100371.65;;;24.52;23.78
80414;BME280;69758;52.580;13.068;2023-07-02T12:01:11;100370.96;;;24.88;23.78
80414;BME280;69758;52.580;13.068;2023-07-02T12:03:36;100370.50;;;25.05;23.22
80414;BME280;69758;52.580;13.068;2023-07-02T12:06:02;100379.21;;;25.50;23.49
80414;BME280;69758;52.580;13.068;2023-07-02T12:08:27;100386.09;;;25.44;24.03
80414;BME280;69758;52.580;13.068;2023-07-02T12:10:52;100380.88;;;25.26;23.43
80414;BME280;69758;52.580;13.068;2023-07-02T12:13:17;100381.72;;;25.37;21.91
80414;BME280;69758;52.580;13.068;2023-07-02T12:15:43;100385.89;;;24.66;22.66
80414;BME280;69758;52.580;13.068;2023-07-02T12:18:09;100382.85;;;24.73;23.98
80414;BME280;69758;52.580;13.068;2023-07-02T12:20:33;100373.91;;;24.92;23.59
80414;BME280;69758;52.580;13.068;2023-07-02T12:22:59;100381.74;;;25.04;23.62
80414;BME280;69758;52.580;13.068;2023-07-02T12:25:25;100381.87;;;25.42;22.63
80414;BME280;69758;52.580;13.068;2023-07-02T12:27:50;100388.61;;;25.58;22.60
80414;BME280;69758;52.580;13.068;2023-07-02T12:30:16;100400.35;;;25.28;23.61